sensor_id;sensor_type;location;lat;lon;timestamp;pressure;altitude;pressure_sealevel;temperature;humidity
20115;BME280;10218;42.874;25.320;2024-02-23T00:02:00;96913.66;;;10.41;100.00
20115;BME280;10218;42.874;25.320;2024-02-23T00:04:27;96908.72;;;10.76;96.33
20115;BME280;10218;42.874;25.320;2024-02-23T00:06:54;96911.69;;;10.81;95.79
20115;BME280;10218;42.874;25.320;2024-02-23T00:09:21;96890.06;;;10.67;96.73
20115;BME280;10218;42.874;25.320;2024-02-23T00:11:49;96891.44;;;10.63;96.09
20115;BME280;10218;42.874;25.320;2024-02-23T00:14:16;96891.91;;;10.90;92.68
20115;BME280;10218;42.874;25.320;2024-02-23T00:16:47;96888.47;;;10.81;93.57
20115;BME280;10218;42.874;25.320;2024-02-23T00:19:14;96885.97;;;10.80;93.30
20115;BME280;10218;42.874;25.320;2024-02-23T00:21:44;96886.63;;;10.82;93.09
20115;BME280;10218;42.874;25.320;2024-02-23T00:24:15;96881.63;;;10.79;93.83
20115;BME280;10218;42.874;25.320;2024-02-23T00:26:43;96874.81;;;10.76;93.58
20115;BME280;10218;42.874;25.320;2024-02-23T00:29:11;96884.31;;;10.79;95.33
20115;BME280;10218;42.874;25.320;2024-02-23T00:31:39;96870.03;;;10.71;97.00
20115;BME280;10218;42.874;25.320;2024-02-23T00:34:09;96871.22;;;10.84;95.25
20115;BME280;10218;42.874;25.320;2024-02-23T00:36:38;96876.91;;;10.66;97.91
20115;BME280;10218;42.874;25.320;2024-02-23T00:39:07;96870.03;;;10.71;96.69
20115;BME280;10218;42.874;25.320;2024-02-23T00:41:35;96865.56;;;10.64;97.30
20115;BME280;10218;42.874;25.320;2024-02-23T00:44:05;96864.38;;;10.66;96.54
20115;BME280;10218;42.874;25.320;2024-02-23T00:46:32;96856.41;;;10.58;99.49
20115;BME280;10218;42.874;25.320;2024-02-23T00:49:00;96863.06;;;10.62;98.76
20115;BME280;10218;42.874;25.320;2024-02-23T00:51:27;96862.44;;;10.60;99.54
20115;BME280;10218;42.874;25.320;2024-02-23T00:53:55;96855.72;;;10.64;98.84
20115;BME280;10218;42.874;25.320;2024-02-23T00:56:22;96851.03;;;10.66;97.58
20115;BME280;10218;42.874;25.320;2024-02-23T00:58:49;96851.22;;;10.80;97.63
20115;BME280;10218;42.874;25.320;2024-02-23T01:01:16;96852.13;;;10.72;96.94
20115;BME280;10218;42.874;25.320;2024-02-23T01:03:43;96848.28;;;10.75;97.15
20115;BME280;10218;42.874;25.320;2024-02-23T01:06:10;96847.72;;;10.79;96.29
20115;BME280;10218;42.874;25.320;2024-02-23T01:08:37;96841.25;;;10.73;95.31
20115;BME280;10218;42.874;25.320;2024-02-23T01:11:07;96845.37;;;10.99;92.17
20115;BME280;10218;42.874;25.320;2024-02-23T01:13:34;96836.03;;;10.80;95.57
20115;BME280;10218;42.874;25.320;2024-02-23T01:16:01;96832.44;;;10.88;94.37
20115;BME280;10218;42.874;25.320;2024-02-23T01:18:28;96835.50;;;10.99;91.56
20115;BME280;10218;42.874;25.320;2024-02-23T01:20:56;96825.53;;;10.93;91.19
20115;BME280;10218;42.874;25.320;2024-02-23T01:23:24;96826.19;;;10.81;92.65
20115;BME280;10218;42.874;25.320;2024-02-23T01:25:51;96832.25;;;10.89;91.75
20115;BME280;10218;42.874;25.320;2024-02-23T01:28:19;96822.97;;;11.00;89.98
20115;BME280;10218;42.874;25.320;2024-02-23T01:30:46;96819.75;;;11.04;88.27
20115;BME280;10218;42.874;25.320;2024-02-23T01:33:13;96824.34;;;10.96;89.91
20115;BME280;10218;42.874;25.320;2024-02-23T01:35:40;96830.63;;;11.03;89.48
20115;BME280;10218;42.874;25.320;2024-02-23T01:38:07;96823.44;;;11.03;88.79
20115;BME280;10218;42.874;25.320;2024-02-23T01:40:34;96824.34;;;10.96;90.35
20115;BME280;10218;42.874;25.320;2024-02-23T01:43:05;96823.53;;;10.95;91.60
20115;BME280;10218;42.874;25.320;2024-02-23T01:45:33;96825.66;;;11.00;91.21
20115;BME280;10218;42.874;25.320;2024-02-23T01:48:01;96815.78;;;10.86;94.58
20115;BME280;10218;42.874;25.320;2024-02-23T01:50:29;96816.78;;;10.85;93.90
20115;BME280;10218;42.874;25.320;2024-02-23T01:53:00;96809.16;;;10.82;93.83
20115;BME280;10218;42.874;25.320;2024-02-23T01:55:27;96815.09;;;10.69;97.34
20115;BME280;10218;42.874;25.320;2024-02-23T01:57:56;96808.84;;;10.77;96.59
20115;BME280;10218;42.874;25.320;2024-02-23T02:00:23;96810.03;;;10.74;98.05
20115;BME280;10218;42.874;25.320;2024-02-23T02:02:51;96805.41;;;10.68;98.39
20115;BME280;10218;42.874;25.320;2024-02-23T02:05:18;96808.56;;;10.71;97.37
20115;BME280;10218;42.874;25.320;2024-02-23T02:07:47;96804.38;;;10.54;100.00
20115;BME280;10218;42.874;25.320;2024-02-23T02:10:17;96815.25;;;10.67;98.46
20115;BME280;10218;42.874;25.320;2024-02-23T02:12:44;96808.28;;;10.66;99.39
20115;BME280;10218;42.874;25.320;2024-02-23T02:15:11;96806.63;;;10.65;99.05
20115;BME280;10218;42.874;25.320;2024-02-23T02:17:38;96813.06;;;10.56;100.00
20115;BME280;10218;42.874;25.320;2024-02-23T02:20:07;96824.16;;;10.45;100.00
20115;BME280;10218;42.874;25.320;2024-02-23T02:22:37;96818.41;;;10.34;100.00
20115;BME280;10218;42.874;25.320;2024-02-23T02:25:05;96818.78;;;10.31;100.00
20115;BME280;10218;42.874;25.320;2024-02-23T02:27:33;96827.53;;;10.39;100.00
20115;BME280;10218;42.874;25.320;2024-02-23T02:30:00;96828.53;;;10.38;100.00
20115;BME280;10218;42.874;25.320;2024-02-23T02:32:27;96819.34;;;10.18;100.00
20115;BME280;10218;42.874;25.320;2024-02-23T02:34:54;96813.09;;;10.03;100.00
20115;BME280;10218;42.874;25.320;2024-02-23T02:37:21;96822.63;;;9.97;100.00
20115;BME280;10218;42.874;25.320;2024-02-23T02:39:48;96816.47;;;9.97;100.00
20115;BME280;10218;42.874;25.320;2024-02-23T02:42:15;96827.41;;;10.10;100.00
20115;BME280;10218;42.874;25.320;2024-02-23T02:44:43;96825.47;;;9.96;100.00
20115;BME280;10218;42.874;25.320;2024-02-23T02:47:10;96830.09;;;10.02;100.00
20115;BME280;10218;42.874;25.320;2024-02-23T02:49:39;96829.09;;;10.03;100.00
20115;BME280;10218;42.874;25.320;2024-02-23T02:52:06;96825.28;;;9.74;100.00
20115;BME280;10218;42.874;25.320;2024-02-23T02:54:35;96829.72;;;9.82;100.00
20115;BME280;10218;42.874;25.320;2024-02-23T02:57:02;96820.09;;;9.73;100.00
20115;BME280;10218;42.874;25.320;2024-02-23T02:59:29;96832.78;;;9.71;100.00
20115;BME280;10218;42.874;25.320;2024-02-23T03:02:00;96829.25;;;9.78;100.00
20115;BME280;10218;42.874;25.320;2024-02-23T03:04:27;96826.72;;;9.85;100.00
20115;BME280;10218;42.874;25.320;2024-02-23T03:06:54;96812.09;;;9.73;100.00
20115;BME280;10218;42.874;25.320;2024-02-23T03:09:22;96824.59;;;9.72;100.00
20115;BME280;10218;42.874;25.320;2024-02-23T03:11:49;96823.69;;;9.88;100.00
20115;BME280;10218;42.874;25.320;2024-02-23T03:14:16;96817.13;;;9.68;100.00
20115;BME280;10218;42.874;25.320;2024-02-23T03:16:45;96826.81;;;9.69;100.00
20115;BME280;10218;42.874;25.320;2024-02-23T03:19:14;96817.81;;;9.62;100.00
20115;BME280;10218;42.874;25.320;2024-02-23T03:21:42;96813.25;;;9.78;100.00
20115;BME280;10218;42.874;25.320;2024-02-23T03:24:09;96821.63;;;9.67;100.00
20115;BME280;10218;42.874;25.320;2024-02-23T03:26:36;96827.72;;;9.53;100.00
20115;BME280;10218;42.874;25.320;2024-02-23T03:29:03;96822.37;;;9.53;100.00
20115;BME280;10218;42.874;25.320;2024-02-23T03:31:30;96826.34;;;9.57;100.00
20115;BME280;10218;42.874;25.320;2024-02-23T03:33:57;96827.09;;;9.43;100.00
20115;BME280;10218;42.874;25.320;2024-02-23T03:36:24;96824.22;;;9.53;100.00
20115;BME280;10218;42.874;25.320;2024-02-23T03:38:52;96829.50;;;9.61;100.00
20115;BME280;10218;42.874;25.320;2024-02-23T03:41:19;96825.88;;;9.54;100.00
20115;BME280;10218;42.874;25.320;2024-02-23T03:43:46;96824.00;;;9.62;100.00
20115;BME280;10218;42.874;25.320;2024-02-23T03:46:13;96825.00;;;9.61;100.00
20115;BME280;10218;42.874;25.320;2024-02-23T03:48:41;96823.03;;;9.55;100.00
20115;BME280;10218;42.874;25.320;2024-02-23T03:51:08;96825.94;;;9.37;100.00
20115;BME280;10218;42.874;25.320;2024-02-23T03:53:36;96815.91;;;9.48;100.00
20115;BME280;10218;42.874;25.320;2024-02-23T03:56:03;96828.56;;;9.45;100.00
20115;BME280;10218;42.874;25.320;2024-02-23T03:58:30;96829.91;;;9.50;100.00
20115;BME280;10218;42.874;25.320;2024-02-23T04:00:58;96823.44;;;9.36;100.00
20115;BME280;10218;42.874;25.320;2024-02-23T04:03:25;96829.28;;;9.31;100.00
20115;BME280;10218;42.874;25.320;2024-02-23T04:05:52;96831.94;;;9.39;100.00
20115;BME280;10218;42.874;25.320;2024-02-23T04:08:19;96824.97;;;9.30;100.00
20115;BME280;10218;42.874;25.320;2024-02-23T04:10:46;96824.31;;;9.20;100.00
20115;BME280;10218;42.874;25.320;2024-02-23T04:13:14;96821.34;;;9.15;100.00
20115;BME280;10218;42.874;25.320;2024-02-23T04:15:41;96818.16;;;9.20;100.00
20115;BME280;10218;42.874;25.320;2024-02-23T04:18:08;96818.88;;;9.06;100.00
20115;BME280;10218;42.874;25.320;2024-02-23T04:20:35;96818.69;;;9.15;100.00
20115;BME280;10218;42.874;25.320;2024-02-23T04:23:02;96813.97;;;9.25;100.00
20115;BME280;10218;42.874;25.320;2024-02-23T04:25:29;96814.66;;;9.27;100.00
20115;BME280;10218;42.874;25.320;2024-02-23T04:27:56;96811.50;;;9.24;100.00
20115;BME280;10218;42.874;25.320;2024-02-23T04:30:23;96810.47;;;9.33;100.00
20115;BME280;10218;42.874;25.320;2024-02-23T04:32:51;96811.25;;;9.41;100.00
20115;BME280;10218;42.874;25.320;2024-02-23T04:35:18;96814.69;;;9.11;100.00
20115;BME280;10218;42.874;25.320;2024-02-23T04:37:45;96818.88;;;9.06;100.00
20115;BME280;10218;42.874;25.320;2024-02-23T04:40:12;96820.16;;;8.30;100.00
20115;BME280;10218;42.874;25.320;2024-02-23T04:42:39;96842.47;;;8.37;100.00
20115;BME280;10218;42.874;25.320;2024-02-23T04:45:07;96834.97;;;8.33;100.00
20115;BME280;10218;42.874;25.320;2024-02-23T04:47:34;96834.94;;;8.49;100.00
20115;BME280;10218;42.874;25.320;2024-02-23T04:50:01;96835.91;;;8.24;100.00
20115;BME280;10218;42.874;25.320;2024-02-23T04:52:30;96842.41;;;8.29;100.00
20115;BME280;10218;42.874;25.320;2024-02-23T04:54:57;96848.50;;;7.89;100.00
20115;BME280;10218;42.874;25.320;2024-02-23T04:57:24;96851.50;;;7.94;100.00
20115;BME280;10218;42.874;25.320;2024-02-23T04:59:51;96851.72;;;8.17;100.00
20115;BME280;10218;42.874;25.320;2024-02-23T05:02:18;96847.03;;;8.03;100.00
20115;BME280;10218;42.874;25.320;2024-02-23T05:04:45;96845.87;;;8.13;100.00
20115;BME280;10218;42.874;25.320;2024-02-23T05:07:13;96843.41;;;8.12;100.00
20115;BME280;10218;42.874;25.320;2024-02-23T05:09:40;96849.09;;;7.67;100.00
20115;BME280;10218;42.874;25.320;2024-02-23T05:12:08;96855.59;;;7.64;100.00
20115;BME280;10218;42.874;25.320;2024-02-23T05:14:35;96853.19;;;7.87;100.00
20115;BME280;10218;42.874;25.320;2024-02-23T05:17:03;96853.37;;;7.52;100.00
20115;BME280;10218;42.874;25.320;2024-02-23T05:19:30;96844.25;;;7.54;100.00
20115;BME280;10218;42.874;25.320;2024-02-23T05:21:57;96845.09;;;7.63;100.00
20115;BME280;10218;42.874;25.320;2024-02-23T05:24:24;96848.41;;;7.57;100.00
20115;BME280;10218;42.874;25.320;2024-02-23T05:26:52;96853.44;;;7.68;100.00
20115;BME280;10218;42.874;25.320;2024-02-23T05:29:19;96850.78;;;7.68;100.00
20115;BME280;10218;42.874;25.320;2024-02-23T05:31:52;96846.78;;;7.72;100.00
20115;BME280;10218;42.874;25.320;2024-02-23T05:34:19;96835.81;;;7.67;100.00
20115;BME280;10218;42.874;25.320;2024-02-23T05:36:47;96852.66;;;7.84;100.00
20115;BME280;10218;42.874;25.320;2024-02-23T05:39:15;96846.03;;;7.96;100.00
20115;BME280;10218;42.874;25.320;2024-02-23T05:41:42;96817.25;;;7.83;100.00
20115;BME280;10218;42.874;25.320;2024-02-23T05:44:09;96834.25;;;8.06;100.00
20115;BME280;10218;42.874;25.320;2024-02-23T05:46:37;96847.19;;;7.85;100.00
20115;BME280;10218;42.874;25.320;2024-02-23T05:49:04;96857.47;;;7.88;100.00
20115;BME280;10218;42.874;25.320;2024-02-23T05:51:31;96852.50;;;7.93;100.00
20115;BME280;10218;42.874;25.320;2024-02-23T05:53:59;96857.62;;;7.79;100.00
20115;BME280;10218;42.874;25.320;2024-02-23T05:56:26;96856.19;;;8.00;100.00
20115;BME280;10218;42.874;25.320;2024-02-23T05:58:53;96860.19;;;8.29;100.00
20115;BME280;10218;42.874;25.320;2024-02-23T06:01:21;96857.75;;;8.43;100.00
20115;BME280;10218;42.874;25.320;2024-02-23T06:03:48;96870.22;;;8.35;100.00
20115;BME280;10218;42.874;25.320;2024-02-23T06:06:15;96868.69;;;8.24;100.00
20115;BME280;10218;42.874;25.320;2024-02-23T06:08:42;96865.50;;;7.96;100.00
20115;BME280;10218;42.874;25.320;2024-02-23T06:11:10;96868.50;;;8.01;100.00
20115;BME280;10218;42.874;25.320;2024-02-23T06:13:37;96863.47;;;7.98;100.00
20115;BME280;10218;42.874;25.320;2024-02-23T06:16:09;96868.50;;;8.09;100.00
20115;BME280;10218;42.874;25.320;2024-02-23T06:18:38;96867.91;;;8.56;100.00
20115;BME280;10218;42.874;25.320;2024-02-23T06:21:14;96871.06;;;8.35;100.00
20115;BME280;10218;42.874;25.320;2024-02-23T06:23:42;96868.91;;;8.47;100.00
20115;BME280;10218;42.874;25.320;2024-02-23T06:26:10;96877.91;;;8.78;100.00
20115;BME280;10218;42.874;25.320;2024-02-23T06:28:37;96884.72;;;8.73;100.00
20115;BME280;10218;42.874;25.320;2024-02-23T06:31:05;96885.81;;;9.11;100.00
20115;BME280;10218;42.874;25.320;2024-02-23T06:33:33;96874.13;;;9.20;100.00
20115;BME280;10218;42.874;25.320;2024-02-23T06:36:00;96890.75;;;9.38;100.00
20115;BME280;10218;42.874;25.320;2024-02-23T06:38:28;96891.25;;;9.80;100.00
20115;BME280;10218;42.874;25.320;2024-02-23T06:40:55;96895.34;;;9.99;100.00
20115;BME280;10218;42.874;25.320;2024-02-23T06:43:23;96893.88;;;10.73;100.00
20115;BME280;10218;42.874;25.320;2024-02-23T06:45:50;96878.78;;;10.80;100.00
20115;BME280;10218;42.874;25.320;2024-02-23T06:48:18;96891.28;;;10.65;100.00
20115;BME280;10218;42.874;25.320;2024-02-23T06:50:45;96893.31;;;11.00;100.00
20115;BME280;10218;42.874;25.320;2024-02-23T06:53:12;96892.22;;;11.39;100.00
20115;BME280;10218;42.874;25.320;2024-02-23T06:55:39;96892.16;;;11.91;100.00
20115;BME280;10218;42.874;25.320;2024-02-23T06:58:06;96886.81;;;11.62;100.00
20115;BME280;10218;42.874;25.320;2024-02-23T07:00:34;96882.09;;;11.49;100.00
20115;BME280;10218;42.874;25.320;2024-02-23T07:03:02;96884.03;;;11.70;100.00
20115;BME280;10218;42.874;25.320;2024-02-23T07:05:30;96892.84;;;12.14;100.00
20115;BME280;10218;42.874;25.320;2024-02-23T07:07:57;96881.91;;;12.30;95.90
20115;BME280;10218;42.874;25.320;2024-02-23T07:10:24;96887.78;;;13.04;88.91
20115;BME280;10218;42.874;25.320;2024-02-23T07:12:52;96892.91;;;13.20;83.94
20115;BME280;10218;42.874;25.320;2024-02-23T07:15:23;96888.56;;;13.54;84.08
20115;BME280;10218;42.874;25.320;2024-02-23T07:17:54;96885.22;;;14.34;73.90
20115;BME280;10218;42.874;25.320;2024-02-23T07:20:22;96891.06;;;14.44;69.94
20115;BME280;10218;42.874;25.320;2024-02-23T07:22:49;96888.81;;;14.54;71.90
20115;BME280;10218;42.874;25.320;2024-02-23T07:25:17;96882.06;;;14.24;70.97
20115;BME280;10218;42.874;25.320;2024-02-23T07:27:44;96885.81;;;14.29;69.25
20115;BME280;10218;42.874;25.320;2024-02-23T07:30:12;96896.03;;;14.53;69.29
20115;BME280;10218;42.874;25.320;2024-02-23T07:32:39;96879.38;;;14.24;68.15
20115;BME280;10218;42.874;25.320;2024-02-23T07:35:07;96877.47;;;14.72;64.70
20115;BME280;10218;42.874;25.320;2024-02-23T07:37:34;96882.88;;;14.91;61.23
20115;BME280;10218;42.874;25.320;2024-02-23T07:40:01;96876.66;;;14.91;60.94
20115;BME280;10218;42.874;25.320;2024-02-23T07:42:31;96880.16;;;14.65;60.97
20115;BME280;10218;42.874;25.320;2024-02-23T07:44:59;96884.94;;;14.83;56.31
20115;BME280;10218;42.874;25.320;2024-02-23T07:47:26;96885.53;;;15.70;53.14
20115;BME280;10218;42.874;25.320;2024-02-23T07:49:54;96880.62;;;16.05;49.18
20115;BME280;10218;42.874;25.320;2024-02-23T07:52:21;96876.63;;;16.21;48.33
20115;BME280;10218;42.874;25.320;2024-02-23T07:54:53;96876.44;;;16.22;47.51
20115;BME280;10218;42.874;25.320;2024-02-23T07:57:22;96863.78;;;16.23;46.75
20115;BME280;10218;42.874;25.320;2024-02-23T07:59:49;96859.78;;;16.32;47.68
20115;BME280;10218;42.874;25.320;2024-02-23T08:02:16;96862.84;;;16.04;45.68
20115;BME280;10218;42.874;25.320;2024-02-23T08:04:43;96867.97;;;16.19;45.15
20115;BME280;10218;42.874;25.320;2024-02-23T08:07:11;96867.78;;;16.52;44.57
20115;BME280;10218;42.874;25.320;2024-02-23T08:09:38;96876.78;;;16.33;44.54
20115;BME280;10218;42.874;25.320;2024-02-23T08:12:05;96862.66;;;16.37;44.31
20115;BME280;10218;42.874;25.320;2024-02-23T08:14:33;96867.00;;;16.76;43.80
20115;BME280;10218;42.874;25.320;2024-02-23T08:17:00;96869.03;;;16.87;42.92
20115;BME280;10218;42.874;25.320;2024-02-23T08:19:27;96871.28;;;17.65;42.24
20115;BME280;10218;42.874;25.320;2024-02-23T08:21:54;96863.44;;;18.29;43.19
20115;BME280;10218;42.874;25.320;2024-02-23T08:24:21;96858.97;;;18.05;43.25
20115;BME280;10218;42.874;25.320;2024-02-23T08:26:49;96870.25;;;18.02;41.48
20115;BME280;10218;42.874;25.320;2024-02-23T08:29:16;96870.66;;;18.35;40.64
20115;BME280;10218;42.874;25.320;2024-02-23T08:31:43;96873.41;;;18.65;41.11
20115;BME280;10218;42.874;25.320;2024-02-23T08:34:11;96873.63;;;19.05;40.01
20115;BME280;10218;42.874;25.320;2024-02-23T08:36:39;96875.84;;;19.50;38.73
20115;BME280;10218;42.874;25.320;2024-02-23T08:39:06;96881.44;;;19.25;38.36
20115;BME280;10218;42.874;25.320;2024-02-23T08:41:35;96870.84;;;20.05;37.57
20115;BME280;10218;42.874;25.320;2024-02-23T08:44:03;96878.13;;;18.70;38.67
20115;BME280;10218;42.874;25.320;2024-02-23T08:46:30;96879.25;;;18.32;39.44
20115;BME280;10218;42.874;25.320;2024-02-23T08:48:57;96872.00;;;18.45;39.66
20115;BME280;10218;42.874;25.320;2024-02-23T08:51:24;96876.63;;;18.74;39.85
20115;BME280;10218;42.874;25.320;2024-02-23T08:53:51;96872.47;;;17.69;40.16
20115;BME280;10218;42.874;25.320;2024-02-23T08:56:18;96876.31;;;17.36;40.47
20115;BME280;10218;42.874;25.320;2024-02-23T08:58:45;96873.69;;;18.09;39.75
20115;BME280;10218;42.874;25.320;2024-02-23T09:01:13;96874.63;;;18.51;39.53
20115;BME280;10218;42.874;25.320;2024-02-23T09:03:40;96875.13;;;18.60;39.23
20115;BME280;10218;42.874;25.320;2024-02-23T09:06:07;96878.66;;;18.12;39.84
20115;BME280;10218;42.874;25.320;2024-02-23T09:08:34;96886.59;;;18.44;39.49
20115;BME280;10218;42.874;25.320;2024-02-23T09:11:01;96877.16;;;17.98;39.57
20115;BME280;10218;42.874;25.320;2024-02-23T09:13:28;96862.53;;;17.87;39.09
20115;BME280;10218;42.874;25.320;2024-02-23T09:15:57;96880.50;;;19.19;38.56
20115;BME280;10218;42.874;25.320;2024-02-23T09:18:24;96865.59;;;19.75;36.66
20115;BME280;10218;42.874;25.320;2024-02-23T09:20:51;96874.91;;;18.91;37.21
20115;BME280;10218;42.874;25.320;2024-02-23T09:23:18;96868.03;;;19.88;36.33
20115;BME280;10218;42.874;25.320;2024-02-23T09:25:45;96861.59;;;20.41;35.39
20115;BME280;10218;42.874;25.320;2024-02-23T09:28:12;96864.50;;;19.99;36.23
20115;BME280;10218;42.874;25.320;2024-02-23T09:30:40;96868.31;;;20.27;34.34
20115;BME280;10218;42.874;25.320;2024-02-23T09:33:07;96862.75;;;21.52;33.76
20115;BME280;10218;42.874;25.320;2024-02-23T09:35:35;96868.19;;;21.52;32.16
20115;BME280;10218;42.874;25.320;2024-02-23T09:38:02;96860.09;;;22.12;31.77
20115;BME280;10218;42.874;25.320;2024-02-23T09:40:30;96861.03;;;21.46;31.99
20115;BME280;10218;42.874;25.320;2024-02-23T09:42:58;96854.03;;;21.33;31.80
20115;BME280;10218;42.874;25.320;2024-02-23T09:45:26;96853.47;;;21.31;31.41
20115;BME280;10218;42.874;25.320;2024-02-23T09:47:57;96869.31;;;21.72;30.56
20115;BME280;10218;42.874;25.320;2024-02-23T09:50:25;96854.53;;;21.47;31.06
20115;BME280;10218;42.874;25.320;2024-02-23T09:52:52;96853.41;;;22.20;30.31
20115;BME280;10218;42.874;25.320;2024-02-23T09:55:23;96859.25;;;22.77;30.61
20115;BME280;10218;42.874;25.320;2024-02-23T09:57:53;96865.16;;;22.47;30.79
20115;BME280;10218;42.874;25.320;2024-02-23T10:00:24;96863.59;;;21.52;31.49
20115;BME280;10218;42.874;25.320;2024-02-23T10:02:53;96855.66;;;20.44;32.84
20115;BME280;10218;42.874;25.320;2024-02-23T10:05:23;96843.81;;;21.57;31.81
20115;BME280;10218;42.874;25.320;2024-02-23T10:07:58;96858.63;;;21.49;32.14
20115;BME280;10218;42.874;25.320;2024-02-23T10:10:34;96858.19;;;20.62;33.13
20115;BME280;10218;42.874;25.320;2024-02-23T10:13:03;96849.00;;;21.42;32.92
20115;BME280;10218;42.874;25.320;2024-02-23T10:15:33;96844.66;;;22.17;31.72
20115;BME280;10218;42.874;25.320;2024-02-23T10:18:00;96845.56;;;21.85;32.62
20115;BME280;10218;42.874;25.320;2024-02-23T10:20:28;96842.31;;;22.26;31.73
20115;BME280;10218;42.874;25.320;2024-02-23T10:22:56;96846.59;;;23.93;29.00
20115;BME280;10218;42.874;25.320;2024-02-23T10:25:23;96833.66;;;22.07;30.68
20115;BME280;10218;42.874;25.320;2024-02-23T10:27:50;96832.50;;;22.25;31.51
20115;BME280;10218;42.874;25.320;2024-02-23T10:30:17;96836.19;;;22.14;32.01
20115;BME280;10218;42.874;25.320;2024-02-23T10:32:45;96837.75;;;21.71;31.99
20115;BME280;10218;42.874;25.320;2024-02-23T10:35:16;96834.50;;;22.08;32.22
20115;BME280;10218;42.874;25.320;2024-02-23T10:37:44;96819.78;;;21.87;33.05
20115;BME280;10218;42.874;25.320;2024-02-23T10:40:16;96828.22;;;21.91;32.51
20115;BME280;10218;42.874;25.320;2024-02-23T10:42:45;96829.63;;;22.58;31.94
20115;BME280;10218;42.874;25.320;2024-02-23T10:45:19;96822.03;;;21.73;32.80
20115;BME280;10218;42.874;25.320;2024-02-23T10:47:48;96817.75;;;21.61;33.08
20115;BME280;10218;42.874;25.320;2024-02-23T10:50:16;96818.56;;;22.65;31.66
20115;BME280;10218;42.874;25.320;2024-02-23T10:52:46;96806.72;;;21.89;32.14
20115;BME280;10218;42.874;25.320;2024-02-23T10:55:14;96811.66;;;22.57;31.44
20115;BME280;10218;42.874;25.320;2024-02-23T10:57:41;96809.31;;;22.93;31.31
20115;BME280;10218;42.874;25.320;2024-02-23T11:00:09;96797.25;;;23.16;30.27
20115;BME280;10218;42.874;25.320;2024-02-23T11:02:46;96811.53;;;21.99;30.78
20115;BME280;10218;42.874;25.320;2024-02-23T11:05:14;96801.41;;;23.28;29.89
20115;BME280;10218;42.874;25.320;2024-02-23T11:07:43;96804.94;;;22.16;30.75
20115;BME280;10218;42.874;25.320;2024-02-23T11:10:16;96803.66;;;24.20;28.76
20115;BME280;10218;42.874;25.320;2024-02-23T11:12:43;96803.72;;;23.88;28.08
20115;BME280;10218;42.874;25.320;2024-02-23T11:15:29;96805.97;;;23.97;28.12
20115;BME280;10218;42.874;25.320;2024-02-23T11:17:56;96800.03;;;25.12;27.12
20115;BME280;10218;42.874;25.320;2024-02-23T11:20:24;96800.59;;;23.65;28.74
20115;BME280;10218;42.874;25.320;2024-02-23T11:22:52;96793.97;;;25.76;26.32
20115;BME280;10218;42.874;25.320;2024-02-23T11:25:26;96790.06;;;24.46;28.20
20115;BME280;10218;42.874;25.320;2024-02-23T11:27:53;96785.25;;;23.17;28.98
20115;BME280;10218;42.874;25.320;2024-02-23T11:30:21;96795.09;;;22.37;29.43
20115;BME280;10218;42.874;25.320;2024-02-23T11:32:48;96797.88;;;22.96;28.51
20115;BME280;10218;42.874;25.320;2024-02-23T11:35:16;96796.56;;;23.35;28.86
20115;BME280;10218;42.874;25.320;2024-02-23T11:37:53;96790.22;;;23.25;28.24
20115;BME280;10218;42.874;25.320;2024-02-23T11:40:26;96791.81;;;22.35;29.75
20115;BME280;10218;42.874;25.320;2024-02-23T11:42:57;96770.94;;;24.36;28.01
20115;BME280;10218;42.874;25.320;2024-02-23T11:45:30;96786.78;;;22.00;30.71
20115;BME280;10218;42.874;25.320;2024-02-23T11:47:58;96794.34;;;22.95;30.54
20115;BME280;10218;42.874;25.320;2024-02-23T11:50:25;96775.28;;;22.69;30.67
20115;BME280;10218;42.874;25.320;2024-02-23T11:52:53;96778.13;;;22.30;31.36
20115;BME280;10218;42.874;25.320;2024-02-23T11:55:22;96782.38;;;22.43;30.59
20115;BME280;10218;42.874;25.320;2024-02-23T11:57:49;96783.72;;;23.68;29.11
20115;BME280;10218;42.874;25.320;2024-02-23T12:00:18;96772.38;;;23.86;28.94
20115;BME280;10218;42.874;25.320;2024-02-23T12:02:45;96773.31;;;22.91;29.53
20115;BME280;10218;42.874;25.320;2024-02-23T12:05:17;96765.94;;;23.60;28.72
20115;BME280;10218;42.874;25.320;2024-02-23T12:07:44;96768.75;;;23.75;28.61
20115;BME280;10218;42.874;25.320;2024-02-23T12:10:13;96770.63;;;23.70;28.20
20115;BME280;10218;42.874;25.320;2024-02-23T12:12:40;96767.50;;;23.09;29.16
20115;BME280;10218;42.874;25.320;2024-02-23T12:15:08;96761.00;;;24.14;28.17
20115;BME280;10218;42.874;25.320;2024-02-23T12:17:36;96760.66;;;25.39;26.79
20115;BME280;10218;42.874;25.320;2024-02-23T12:20:04;96764.97;;;24.54;27.26
20115;BME280;10218;42.874;25.320;2024-02-23T12:22:34;96759.19;;;24.40;28.51
20115;BME280;10218;42.874;25.320;2024-02-23T12:25:01;96755.16;;;25.49;26.98
20115;BME280;10218;42.874;25.320;2024-02-23T12:27:30;96762.37;;;24.12;27.66
20115;BME280;10218;42.874;25.320;2024-02-23T12:29:57;96754.94;;;24.95;27.43
20115;BME280;10218;42.874;25.320;2024-02-23T12:32:24;96754.59;;;24.51;27.45
20115;BME280;10218;42.874;25.320;2024-02-23T12:34:52;96754.47;;;24.15;28.05
20115;BME280;10218;42.874;25.320;2024-02-23T12:37:19;96754.47;;;22.57;29.25
20115;BME280;10218;42.874;25.320;2024-02-23T12:39:49;96745.03;;;24.58;27.68
20115;BME280;10218;42.874;25.320;2024-02-23T12:42:16;96757.72;;;24.02;27.74
20115;BME280;10218;42.874;25.320;2024-02-23T12:44:43;96754.41;;;25.08;27.08
20115;BME280;10218;42.874;25.320;2024-02-23T12:47:10;96752.78;;;23.47;28.45
20115;BME280;10218;42.874;25.320;2024-02-23T12:49:37;96753.41;;;22.85;28.70
20115;BME280;10218;42.874;25.320;2024-02-23T12:52:06;96755.47;;;25.22;27.01
20115;BME280;10218;42.874;25.320;2024-02-23T12:54:33;96754.28;;;23.70;27.69